Time;durP1;ratioP1;P1;durP2;ratioP2;P2;SDS_P1;SDS_P2;PMS_P1;PMS_P2;Temp;Humidity;BMP_temperature;BMP_pressure;BME280_temperature;BME280_humidity;BME280_pressure;Samples;Min_cycle;Max_cycle;Signal;HPM_P1;HPM_P2
2024/03/30 00:04:13;;;;;;;16.90;8.43;;;13.30;99.90;;;;;;10120692;28;20107;-68
2024/03/30 00:09:04;;;;;;;14.63;8.10;;;13.20;99.90;;;;;;10109160;28;20037;-67
2024/03/30 00:13:54;;;;;;;14.60;8.20;;;13.20;99.90;;;;;;10107620;28;20535;-68
2024/03/30 00:18:45;;;;;;;15.38;8.60;;;13.20;99.90;;;;;;10092905;28;20621;-67
2024/03/30 00:23:36;;;;;;;15.70;8.30;;;13.10;99.90;;;;;;10096268;28;20026;-66
2024/03/30 00:28:27;;;;;;;16.17;9.88;;;13.10;99.90;;;;;;10113649;28;20053;-67
2024/03/30 00:33:18;;;;;;;14.25;8.52;;;13.10;99.90;;;;;;10110342;28;20071;-68
2024/03/30 00:38:09;;;;;;;15.55;7.60;;;13.20;99.90;;;;;;10103599;28;20041;-68
2024/03/30 00:43:01;;;;;;;19.00;10.55;;;13.20;99.90;;;;;;10102985;28;20473;-68
2024/03/30 00:47:52;;;;;;;16.05;9.52;;;13.20;99.90;;;;;;10114115;28;20127;-67
2024/03/30 00:52:43;;;;;;;15.40;8.30;;;13.20;99.90;;;;;;10100979;28;20033;-68
2024/03/30 00:57:33;;;;;;;18.48;9.90;;;13.10;99.90;;;;;;10109915;28;20610;-67
2024/03/30 01:02:24;;;;;;;14.82;8.90;;;13.20;99.90;;;;;;10107691;28;20025;-66
2024/03/30 01:07:14;;;;;;;16.73;9.85;;;13.20;99.90;;;;;;10094474;28;20037;-66
2024/03/30 01:12:06;;;;;;;23.42;10.75;;;13.20;99.90;;;;;;10128483;28;20056;-67
2024/03/30 01:16:56;;;;;;;20.73;10.20;;;13.10;99.90;;;;;;10120992;28;20501;-66
2024/03/30 01:21:47;;;;;;;19.13;10.82;;;13.20;99.90;;;;;;10114888;28;20070;-67
2024/03/30 01:26:44;;;;;;;19.70;10.77;;;13.20;99.90;;;;;;10120306;28;20041;-66
2024/03/30 01:31:35;;;;;;;17.85;10.30;;;13.20;99.90;;;;;;10103699;28;20047;-66
2024/03/30 01:36:25;;;;;;;21.80;12.23;;;13.20;99.90;;;;;;10098262;28;20020;-67
2024/03/30 01:41:16;;;;;;;18.75;9.75;;;13.10;99.90;;;;;;10123812;28;20116;-66
2024/03/30 01:46:07;;;;;;;19.95;10.50;;;13.10;99.90;;;;;;10111005;28;20025;-67
2024/03/30 01:50:58;;;;;;;22.10;10.82;;;13.10;99.90;;;;;;10101487;28;20122;-66
2024/03/30 01:55:51;;;;;;;17.52;9.55;;;13.10;99.90;;;;;;10100237;28;20028;-67
2024/03/30 02:00:42;;;;;;;19.35;10.38;;;13.10;99.90;;;;;;10114049;28;20622;-66
2024/03/30 02:05:33;;;;;;;22.45;11.10;;;13.00;99.90;;;;;;10122550;28;20101;-67
2024/03/30 02:10:24;;;;;;;24.55;12.88;;;13.10;99.90;;;;;;10115681;28;20042;-67
2024/03/30 02:15:15;;;;;;;22.75;11.05;;;13.10;99.90;;;;;;10095229;28;20071;-67
2024/03/30 02:20:06;;;;;;;26.67;12.43;;;13.10;99.90;;;;;;10108828;28;20098;-66
2024/03/30 02:24:56;;;;;;;19.00;10.93;;;13.10;99.90;;;;;;10103162;28;20045;-66
2024/03/30 02:29:56;;;;;;;24.52;12.20;;;13.00;99.90;;;;;;10114729;28;20659;-66
2024/03/30 02:34:46;;;;;;;21.15;10.98;;;13.10;99.90;;;;;;10122814;28;20036;-67
2024/03/30 02:39:37;;;;;;;25.75;11.85;;;13.10;99.90;;;;;;10116578;28;20027;-66
2024/03/30 02:44:27;;;;;;;20.30;10.95;;;13.10;99.90;;;;;;10090178;28;20056;-66
2024/03/30 02:49:18;;;;;;;24.08;11.90;;;13.00;99.90;;;;;;10108825;28;20066;-67
2024/03/30 02:54:09;;;;;;;21.17;11.65;;;13.00;99.90;;;;;;10130791;28;20025;-66
2024/03/30 02:59:00;;;;;;;21.60;10.77;;;12.90;99.90;;;;;;10111083;28;20043;-67
2024/03/30 03:03:50;;;;;;;25.63;11.43;;;12.90;99.90;;;;;;10119157;28;20430;-66
2024/03/30 03:08:41;;;;;;;24.35;10.60;;;12.90;99.90;;;;;;10107749;28;20486;-66
2024/03/30 03:13:32;;;;;;;20.73;11.80;;;12.80;99.90;;;;;;10107625;28;20021;-66
2024/03/30 03:18:22;;;;;;;24.58;11.10;;;12.90;99.90;;;;;;10106604;28;20037;-67
2024/03/30 03:23:13;;;;;;;24.25;12.02;;;12.90;99.90;;;;;;10105893;28;20021;-67
2024/03/30 03:28:04;;;;;;;28.65;12.90;;;12.90;99.90;;;;;;10129084;28;20052;-66
2024/03/30 03:32:54;;;;;;;26.20;11.75;;;12.90;99.90;;;;;;10120386;28;20017;-66
2024/03/30 03:37:45;;;;;;;25.88;12.63;;;12.90;99.90;;;;;;10113300;28;20053;-66
2024/03/30 03:42:36;;;;;;;21.73;11.75;;;12.80;99.90;;;;;;10121639;28;20028;-67
2024/03/30 03:47:26;;;;;;;21.08;10.73;;;12.80;99.90;;;;;;10131009;28;20042;-66
2024/03/30 03:52:17;;;;;;;24.85;11.30;;;12.80;99.90;;;;;;10125763;28;20016;-67
2024/03/30 03:57:07;;;;;;;22.40;12.05;;;12.80;99.90;;;;;;10115126;28;20028;-67
2024/03/30 04:01:58;;;;;;;23.67;11.77;;;12.80;99.90;;;;;;10114204;28;20028;-66
2024/03/30 04:06:49;;;;;;;24.13;10.38;;;12.80;99.90;;;;;;10101361;28;20448;-66
2024/03/30 04:11:39;;;;;;;22.83;9.77;;;12.70;99.90;;;;;;10097686;28;20041;-66
2024/03/30 04:16:30;;;;;;;21.27;9.63;;;12.60;99.90;;;;;;10122837;28;20037;-67
2024/03/30 04:21:21;;;;;;;16.83;8.07;;;12.60;99.90;;;;;;10120690;28;20025;-67
2024/03/30 04:26:15;;;;;;;21.98;9.70;;;12.70;99.90;;;;;;10122879;28;20056;-67
2024/03/30 04:31:06;;;;;;;16.20;7.93;;;12.70;99.90;;;;;;10104930;28;20514;-66
2024/03/30 04:36:05;;;;;;;18.55;8.25;;;12.60;99.90;;;;;;10107908;28;20028;-66
2024/03/30 04:41:04;;;;;;;22.55;10.13;;;12.50;99.90;;;;;;10123418;28;20040;-66
2024/03/30 04:45:55;;;;;;;17.90;9.20;;;12.50;99.90;;;;;;10118126;28;20032;-66
2024/03/30 04:50:46;;;;;;;18.80;9.15;;;12.50;99.90;;;;;;10119477;28;20044;-67
2024/03/30 04:55:37;;;;;;;17.75;8.88;;;12.50;99.90;;;;;;10113286;28;20035;-68
2024/03/30 05:00:28;;;;;;;21.95;10.55;;;12.50;99.90;;;;;;10109783;28;20426;-66
2024/03/30 05:05:18;;;;;;;22.25;8.65;;;12.60;99.90;;;;;;10099658;28;20531;-67
2024/03/30 05:10:09;;;;;;;20.45;9.82;;;12.50;99.90;;;;;;10109516;28;20445;-66
2024/03/30 05:14:59;;;;;;;21.33;8.57;;;12.50;99.90;;;;;;10116591;28;20043;-66
2024/03/30 05:24:59;;;;;;;20.48;8.10;;;12.50;99.90;;;;;;10100960;28;20210;-69
2024/03/30 05:29:50;;;;;;;17.02;8.15;;;12.50;99.90;;;;;;10103902;28;20182;-67
2024/03/30 05:34:40;;;;;;;20.27;9.23;;;12.40;99.90;;;;;;10096531;28;20020;-67
2024/03/30 05:39:32;;;;;;;19.60;9.90;;;12.40;99.90;;;;;;10117566;28;20037;-67
2024/03/30 05:44:22;;;;;;;19.38;9.20;;;12.40;99.90;;;;;;10112565;28;20079;-66
2024/03/30 05:49:13;;;;;;;20.10;8.63;;;12.50;99.90;;;;;;10107783;28;20103;-68
2024/03/30 05:54:03;;;;;;;19.38;9.30;;;12.40;99.90;;;;;;10099231;28;20462;-66
2024/03/30 05:58:54;;;;;;;17.98;8.75;;;12.40;99.90;;;;;;10115665;28;20029;-67
2024/03/30 06:03:45;;;;;;;18.67;9.65;;;12.40;99.90;;;;;;10112504;28;20021;-67
2024/03/30 06:08:35;;;;;;;18.38;8.40;;;12.40;99.90;;;;;;10102297;28;20043;-68
2024/03/30 06:13:26;;;;;;;20.80;8.90;;;12.40;99.90;;;;;;10103572;28;20024;-68
2024/03/30 06:18:17;;;;;;;20.48;9.10;;;12.40;99.90;;;;;;10097765;28;20756;-67
2024/03/30 06:23:07;;;;;;;23.50;10.75;;;12.30;99.90;;;;;;10127793;28;20020;-67
2024/03/30 06:27:58;;;;;;;22.30;10.73;;;12.40;99.90;;;;;;10115256;28;20097;-67
2024/03/30 06:32:49;;;;;;;22.05;9.43;;;12.40;99.90;;;;;;10108243;28;20549;-67
2024/03/30 06:37:39;;;;;;;20.95;9.55;;;12.30;99.90;;;;;;10103068;28;20604;-68
2024/03/30 06:47:39;;;;;;;17.65;8.73;;;12.40;99.90;;;;;;10109030;28;20043;-69
2024/03/30 06:52:30;;;;;;;21.42;9.13;;;12.20;99.90;;;;;;10111482;28;20031;-68
2024/03/30 06:57:20;;;;;;;20.33;9.18;;;12.20;99.90;;;;;;10102387;28;20056;-67
2024/03/30 07:02:12;;;;;;;22.50;8.57;;;12.30;99.90;;;;;;10104346;28;20108;-67
2024/03/30 07:07:03;;;;;;;19.70;10.02;;;12.30;99.90;;;;;;10096697;28;20044;-67
2024/03/30 07:11:53;;;;;;;25.35;10.73;;;12.20;99.90;;;;;;10110680;28;20421;-67
2024/03/30 07:16:44;;;;;;;24.67;9.75;;;12.20;99.90;;;;;;10120087;28;20036;-66
2024/03/30 07:21:35;;;;;;;20.48;9.55;;;12.30;99.90;;;;;;10117013;28;20028;-67
2024/03/30 07:26:25;;;;;;;21.75;10.40;;;12.40;99.90;;;;;;10110356;28;20496;-67
2024/03/30 07:31:16;;;;;;;30.92;12.30;;;12.40;99.90;;;;;;10098329;28;20037;-67
2024/03/30 07:36:07;;;;;;;25.35;11.07;;;12.50;99.90;;;;;;10092612;28;20056;-67
2024/03/30 07:40:58;;;;;;;24.05;10.38;;;12.50;99.90;;;;;;10107674;28;20166;-68
2024/03/30 07:45:49;;;;;;;25.52;10.85;;;12.50;99.90;;;;;;10110930;28;20507;-67
2024/03/30 07:50:40;;;;;;;24.10;10.80;;;12.50;99.90;;;;;;10098703;28;20055;-67
2024/03/30 07:55:31;;;;;;;24.80;10.35;;;12.60;99.90;;;;;;10082642;28;20030;-67
2024/03/30 08:00:23;;;;;;;20.58;10.38;;;12.70;99.90;;;;;;10108934;28;20413;-67
2024/03/30 08:05:13;;;;;;;27.38;12.38;;;12.70;99.90;;;;;;10124176;28;20502;-67
2024/03/30 08:10:05;;;;;;;26.02;12.70;;;12.70;99.90;;;;;;10129526;28;20063;-67
2024/03/30 08:14:55;;;;;;;25.33;12.90;;;12.80;99.90;;;;;;10125734;28;20502;-67
2024/03/30 08:19:46;;;;;;;26.98;10.70;;;12.80;99.90;;;;;;10121237;28;20028;-68
2024/03/30 08:24:36;;;;;;;31.15;12.45;;;12.70;99.90;;;;;;10114321;28;20095;-67
2024/03/30 08:29:27;;;;;;;24.30;11.95;;;12.80;99.90;;;;;;10133606;28;20044;-68
2024/03/30 08:34:18;;;;;;;26.52;10.40;;;12.70;99.90;;;;;;10125707;28;20488;-67
2024/03/30 08:39:08;;;;;;;27.88;12.18;;;12.70;99.90;;;;;;10125044;28;20044;-67
2024/03/30 08:44:02;;;;;;;30.80;12.68;;;12.90;99.90;;;;;;10098374;28;20128;-67
2024/03/30 08:49:02;;;;;;;25.08;10.93;;;12.90;99.90;;;;;;10123192;28;20033;-66
2024/03/30 08:53:59;;;;;;;31.58;12.48;;;13.10;99.90;;;;;;10123529;28;20078;-66
2024/03/30 08:58:50;;;;;;;26.77;11.30;;;13.10;99.90;;;;;;10119005;28;20042;-67
2024/03/30 09:03:40;;;;;;;28.33;12.15;;;13.30;99.90;;;;;;10109602;28;20033;-67
2024/03/30 09:08:31;;;;;;;28.83;13.63;;;13.30;99.90;;;;;;10111451;28;20563;-67
2024/03/30 09:13:22;;;;;;;26.15;12.73;;;13.30;99.90;;;;;;10105140;28;20021;-67
2024/03/30 09:18:12;;;;;;;27.20;12.75;;;13.30;99.90;;;;;;10099533;28;20025;-68
2024/03/30 09:23:03;;;;;;;25.17;11.65;;;13.30;99.90;;;;;;10098234;28;20064;-67
2024/03/30 09:27:54;;;;;;;27.95;11.93;;;13.30;99.90;;;;;;10121659;28;20037;-68
2024/03/30 09:32:44;;;;;;;30.25;14.40;;;13.30;99.90;;;;;;10106898;28;20029;-67
2024/03/30 09:37:35;;;;;;;26.85;12.98;;;13.20;99.90;;;;;;10105842;28;20032;-67
2024/03/30 09:42:37;;;;;;;30.00;11.82;;;13.20;99.90;;;;;;10126378;28;20056;-67
2024/03/30 09:47:30;;;;;;;26.08;11.93;;;13.30;99.90;;;;;;10107692;28;20033;-67
2024/03/30 09:52:23;;;;;;;25.08;11.77;;;13.30;99.90;;;;;;10113990;28;20572;-67
2024/03/30 09:57:15;;;;;;;26.98;12.20;;;13.40;99.90;;;;;;10110088;28;20029;-67
2024/03/30 10:02:06;;;;;;;30.50;14.38;;;13.30;99.90;;;;;;10103528;28;20021;-68
2024/03/30 10:06:59;;;;;;;29.50;12.93;;;13.30;99.90;;;;;;10108110;28;20033;-67
2024/03/30 10:11:50;;;;;;;23.73;12.40;;;13.20;99.90;;;;;;10112100;28;20403;-68
2024/03/30 10:16:41;;;;;;;30.52;13.38;;;13.20;99.90;;;;;;10113684;28;20488;-67
2024/03/30 10:21:31;;;;;;;27.85;11.98;;;13.30;99.90;;;;;;10121907;28;20029;-67
2024/03/30 10:26:24;;;;;;;24.42;10.93;;;13.10;99.90;;;;;;10116649;28;20124;-67
2024/03/30 10:31:15;;;;;;;20.48;11.10;;;13.10;99.90;;;;;;10092654;28;20048;-67
2024/03/30 10:36:10;;;;;;;24.08;9.82;;;13.10;99.90;;;;;;10110623;28;20073;-67
2024/03/30 10:41:00;;;;;;;21.27;10.55;;;13.00;99.90;;;;;;10126719;28;20068;-66
2024/03/30 10:45:51;;;;;;;20.15;9.68;;;13.10;99.90;;;;;;10114604;28;20025;-66
2024/03/30 10:50:42;;;;;;;21.25;8.38;;;13.20;99.90;;;;;;10114474;28;20190;-66
2024/03/30 10:55:39;;;;;;;17.60;8.90;;;13.20;99.90;;;;;;10105950;28;20036;-65
2024/03/30 11:00:30;;;;;;;21.52;8.88;;;13.30;99.90;;;;;;10106418;28;20119;-66
2024/03/30 11:05:22;;;;;;;19.25;8.20;;;13.40;99.90;;;;;;10102039;28;20029;-66
2024/03/30 11:10:13;;;;;;;16.30;7.57;;;13.50;99.90;;;;;;10098480;28;20063;-66
2024/03/30 11:15:04;;;;;;;16.30;8.15;;;13.60;99.90;;;;;;10108205;28;20032;-66
2024/03/30 11:20:14;;;;;;;19.42;9.10;;;13.70;99.90;;;;;;10109593;28;20033;-65
2024/03/30 11:25:09;;;;;;;15.32;9.07;;;13.60;99.90;;;;;;10093803;28;20664;-65
2024/03/30 11:30:16;;;;;;;18.83;9.27;;;13.70;99.90;;;;;;10098547;28;20100;-65
2024/03/30 11:35:17;;;;;;;16.13;8.98;;;13.80;99.90;;;;;;10112322;28;20029;-65
2024/03/30 11:40:13;;;;;;;15.10;7.70;;;13.80;99.90;;;;;;10122527;28;20060;-66
2024/03/30 11:45:07;;;;;;;14.80;8.18;;;13.90;99.90;;;;;;10111109;28;20071;-66
2024/03/30 11:49:58;;;;;;;15.40;7.82;;;14.00;99.90;;;;;;10112332;28;20040;-66
2024/03/30 11:54:48;;;;;;;15.57;7.25;;;14.00;99.90;;;;;;10110663;28;20029;-66
2024/03/30 11:59:41;;;;;;;15.40;8.05;;;14.10;99.90;;;;;;10115131;28;20479;-67
2024/03/30 12:04:34;;;;;;;19.85;8.60;;;14.10;99.90;;;;;;10120550;28;20071;-66
2024/03/30 12:09:28;;;;;;;17.02;8.23;;;14.20;99.90;;;;;;10108963;28;20037;-66
2024/03/30 12:14:25;;;;;;;18.20;8.90;;;14.20;99.90;;;;;;10108721;28;20044;-65
2024/03/30 12:19:16;;;;;;;18.80;8.32;;;14.30;99.90;;;;;;10106251;28;20375;-65
2024/03/30 12:24:08;;;;;;;20.40;10.40;;;14.40;99.90;;;;;;10100325;28;20036;-66
2024/03/30 12:29:02;;;;;;;21.98;10.18;;;14.40;99.90;;;;;;10111487;28;20103;-66
2024/03/30 12:33:54;;;;;;;21.73;11.05;;;14.40;99.90;;;;;;10092967;28;20032;-66
2024/03/30 12:38:45;;;;;;;27.88;12.00;;;14.50;99.90;;;;;;10104306;28;20029;-66
2024/03/30 12:43:36;;;;;;;25.30;13.30;;;14.50;99.90;;;;;;10116998;28;20036;-66
2024/03/30 12:48:27;;;;;;;28.23;13.15;;;14.50;99.90;;;;;;10130060;28;20040;-66
2024/03/30 12:53:17;;;;;;;23.73;12.95;;;14.50;99.90;;;;;;10111800;28;20021;-66
2024/03/30 12:58:09;;;;;;;26.95;13.73;;;14.50;99.90;;;;;;10109549;28;20037;-66
2024/03/30 13:03:01;;;;;;;21.40;12.15;;;14.50;99.90;;;;;;10102512;28;20511;-65
2024/03/30 13:07:54;;;;;;;28.45;13.52;;;14.60;99.90;;;;;;10103795;28;20032;-65
2024/03/30 13:12:45;;;;;;;25.63;12.38;;;14.60;99.90;;;;;;10118011;28;20485;-65
2024/03/30 13:17:36;;;;;;;28.70;12.73;;;14.70;99.90;;;;;;10106972;28;20028;-65
2024/03/30 13:22:27;;;;;;;25.90;13.02;;;14.70;99.90;;;;;;10126611;28;20032;-65
2024/03/30 13:27:19;;;;;;;27.40;12.85;;;14.80;99.90;;;;;;10118178;28;20154;-65
2024/03/30 13:32:09;;;;;;;29.95;13.63;;;14.80;99.90;;;;;;10094559;28;20025;-65
2024/03/30 13:37:00;;;;;;;31.02;14.25;;;14.80;99.90;;;;;;10099907;28;20383;-65
2024/03/30 13:41:51;;;;;;;32.10;13.93;;;14.80;99.90;;;;;;10130544;28;20050;-65
2024/03/30 13:46:42;;;;;;;29.85;14.63;;;14.80;99.90;;;;;;10102645;28;20438;-65
2024/03/30 13:51:33;;;;;;;29.60;13.98;;;14.90;99.90;;;;;;10106150;28;20464;-65
2024/03/30 13:56:24;;;;;;;32.22;11.60;;;14.80;99.90;;;;;;10100452;28;20074;-66
2024/03/30 14:01:14;;;;;;;27.92;12.38;;;14.90;99.90;;;;;;10112788;28;20051;-65
2024/03/30 14:06:05;;;;;;;23.58;11.65;;;14.80;99.90;;;;;;10129389;28;20112;-66
2024/03/30 14:10:56;;;;;;;30.80;13.20;;;14.80;99.90;;;;;;10119508;28;20040;-66
2024/03/30 14:15:47;;;;;;;22.35;11.40;;;14.70;99.90;;;;;;10107181;28;20024;-65
2024/03/30 14:20:37;;;;;;;25.35;10.75;;;14.70;99.90;;;;;;10111596;28;20032;-67
2024/03/30 14:25:30;;;;;;;22.10;10.63;;;14.70;99.90;;;;;;10104982;28;20044;-67
2024/03/30 14:30:21;;;;;;;28.05;10.77;;;14.70;99.90;;;;;;10098858;28;20047;-67
2024/03/30 14:35:11;;;;;;;22.40;9.98;;;14.80;99.90;;;;;;10125307;28;20031;-67
2024/03/30 14:40:04;;;;;;;18.23;8.20;;;14.80;99.90;;;;;;10113358;28;20053;-65
2024/03/30 14:44:55;;;;;;;19.25;8.35;;;14.90;99.90;;;;;;10087110;28;20365;-66
2024/03/30 14:49:46;;;;;;;20.00;7.95;;;15.10;99.90;;;;;;10125253;28;20029;-68
2024/03/30 14:54:36;;;;;;;20.33;8.10;;;15.10;99.90;;;;;;10121910;28;20032;-66
2024/03/30 14:59:27;;;;;;;13.68;6.28;;;15.40;99.90;;;;;;10115694;28;20029;-67
2024/03/30 15:04:18;;;;;;;15.23;6.25;;;15.60;99.90;;;;;;10118750;28;20051;-66
2024/03/30 15:09:09;;;;;;;20.25;8.05;;;15.70;99.90;;;;;;10106705;28;20037;-65
2024/03/30 15:13:59;;;;;;;14.07;6.85;;;15.80;99.90;;;;;;10112715;28;20024;-68
2024/03/30 15:18:50;;;;;;;14.77;6.10;;;16.20;99.90;;;;;;10109278;28;20037;-68
2024/03/30 15:23:41;;;;;;;13.98;5.18;;;16.40;99.90;;;;;;10093940;28;20052;-69
2024/03/30 15:28:32;;;;;;;10.60;5.22;;;16.70;99.90;;;;;;10125435;28;20055;-68
2024/03/30 15:33:22;;;;;;;9.23;4.05;;;16.90;99.90;;;;;;10126646;28;20029;-65
2024/03/30 15:38:13;;;;;;;23.00;6.38;;;16.80;99.90;;;;;;10109735;28;20016;-66
2024/03/30 15:43:04;;;;;;;12.15;3.95;;;16.80;99.90;;;;;;10135850;28;20032;-65
2024/03/30 15:48:02;;;;;;;10.65;3.22;;;17.00;99.90;;;;;;10128587;28;20040;-66
2024/03/30 15:52:53;;;;;;;17.10;4.85;;;16.90;99.90;;;;;;10104550;28;20114;-68
2024/03/30 15:57:43;;;;;;;14.27;3.97;;;16.80;99.90;;;;;;10109553;28;20239;-65
2024/03/30 16:02:34;;;;;;;13.98;3.72;;;16.80;99.90;;;;;;10106762;28;20504;-67
2024/03/30 16:07:26;;;;;;;11.05;3.70;;;16.60;99.90;;;;;;10099640;28;20418;-68
2024/03/30 16:12:17;;;;;;;11.18;3.33;;;16.50;99.90;;;;;;10107257;28;20032;-66
2024/03/30 16:17:08;;;;;;;14.73;4.82;;;16.50;99.90;;;;;;10121136;28;20028;-66
2024/03/30 16:21:58;;;;;;;11.73;3.92;;;16.40;99.90;;;;;;10113759;28;20028;-66
2024/03/30 16:26:50;;;;;;;9.90;5.10;;;16.20;99.90;;;;;;10117828;28;20059;-66
2024/03/30 16:31:41;;;;;;;19.23;2.67;;;16.20;99.90;;;;;;10102068;28;20045;-65
2024/03/30 16:36:32;;;;;;;10.48;3.45;;;16.10;99.90;;;;;;10130073;28;20020;-66
2024/03/30 16:41:22;;;;;;;11.15;3.42;;;16.10;99.90;;;;;;10130552;28;20024;-66
2024/03/30 16:46:13;;;;;;;16.17;5.00;;;16.10;99.90;;;;;;10124068;28;20094;-66
2024/03/30 16:51:04;;;;;;;9.00;4.13;;;16.10;99.90;;;;;;10107760;28;20040;-65
2024/03/30 16:55:59;;;;;;;10.38;3.08;;;16.10;99.90;;;;;;10112174;28;20059;-68
2024/03/30 17:01:01;;;;;;;6.80;2.65;;;16.00;99.90;;;;;;10105065;28;20082;-66
2024/03/30 17:05:53;;;;;;;14.93;4.40;;;16.00;99.90;;;;;;10103507;28;20174;-67
2024/03/30 17:10:44;;;;;;;11.57;2.90;;;16.00;99.90;;;;;;10117949;28;20457;-65
2024/03/30 17:15:35;;;;;;;10.10;3.53;;;15.90;99.90;;;;;;10102315;28;20016;-66
2024/03/30 17:20:26;;;;;;;22.35;6.25;;;15.90;99.90;;;;;;10111120;28;20433;-66
2024/03/30 17:25:16;;;;;;;21.40;4.10;;;15.90;99.90;;;;;;10104986;28;20052;-66
2024/03/30 17:30:07;;;;;;;12.55;4.93;;;15.90;99.90;;;;;;10102160;28;20043;-66
2024/03/30 17:35:06;;;;;;;7.15;3.40;;;15.80;99.90;;;;;;10113351;28;20013;-66
2024/03/30 17:39:56;;;;;;;15.63;3.20;;;15.80;99.90;;;;;;10117382;28;20116;-67
2024/03/30 17:44:48;;;;;;;19.98;4.10;;;15.80;99.90;;;;;;10110599;28;20116;-66
2024/03/30 17:49:42;;;;;;;9.32;3.55;;;15.80;99.90;;;;;;10105197;28;20037;-67
2024/03/30 17:54:32;;;;;;;14.18;4.00;;;15.80;99.90;;;;;;10100240;28;20021;-66
2024/03/30 17:59:23;;;;;;;10.27;2.70;;;15.80;99.90;;;;;;10110509;28;20037;-66
2024/03/30 18:04:14;;;;;;;8.13;2.97;;;15.60;99.90;;;;;;10118562;28;20085;-66
2024/03/30 18:09:04;;;;;;;8.68;2.60;;;15.60;99.90;;;;;;10114785;28;20032;-65
2024/03/30 18:13:55;;;;;;;9.48;2.55;;;15.60;99.90;;;;;;10097989;28;20031;-65
2024/03/30 18:18:51;;;;;;;9.52;3.38;;;15.60;99.90;;;;;;10102144;28;20076;-67
2024/03/30 18:23:41;;;;;;;7.90;3.20;;;15.70;99.90;;;;;;10112172;28;20033;-67
2024/03/30 18:28:32;;;;;;;5.80;2.70;;;15.60;99.90;;;;;;10120482;28;20510;-67
2024/03/30 18:33:23;;;;;;;9.07;3.22;;;15.60;99.90;;;;;;10115190;28;20027;-66
2024/03/30 18:38:13;;;;;;;6.40;2.72;;;15.50;99.90;;;;;;10102952;28;20032;-68
2024/03/30 18:43:04;;;;;;;10.93;3.50;;;15.60;99.90;;;;;;10102885;28;20016;-66
2024/03/30 18:47:55;;;;;;;14.18;3.47;;;15.70;99.90;;;;;;10096763;28;20032;-65
2024/03/30 18:52:47;;;;;;;20.60;4.55;;;15.60;99.90;;;;;;10102533;28;20021;-67
2024/03/30 18:57:40;;;;;;;13.52;3.25;;;15.50;99.90;;;;;;10096401;28;20055;-67
2024/03/30 19:02:31;;;;;;;8.88;3.42;;;15.40;99.90;;;;;;10103855;28;20522;-65
2024/03/30 19:07:22;;;;;;;13.57;3.83;;;15.50;99.90;;;;;;10095921;28;20029;-66
2024/03/30 19:12:13;;;;;;;12.73;3.50;;;15.40;99.90;;;;;;10107042;28;20440;-66
2024/03/30 19:17:06;;;;;;;14.70;4.40;;;15.50;99.90;;;;;;10114487;28;20020;-66
2024/03/30 19:21:57;;;;;;;11.52;3.85;;;15.50;99.90;;;;;;10118502;28;20477;-66
2024/03/30 19:26:48;;;;;;;14.18;4.15;;;15.40;99.90;;;;;;10116905;28;20123;-68
2024/03/30 19:31:40;;;;;;;8.25;3.22;;;15.40;99.90;;;;;;10101177;28;20037;-66
2024/03/30 19:36:31;;;;;;;6.60;2.70;;;15.40;99.90;;;;;;10092711;28;20037;-66
2024/03/30 19:41:21;;;;;;;9.18;2.63;;;15.30;99.90;;;;;;10121364;28;20600;-66
2024/03/30 19:46:12;;;;;;;11.98;3.10;;;15.30;99.90;;;;;;10106251;28;20068;-66
2024/03/30 19:51:04;;;;;;;5.75;2.30;;;15.30;99.90;;;;;;10094669;28;20577;-66
2024/03/30 19:55:54;;;;;;;11.18;2.60;;;15.30;99.90;;;;;;10093145;28;20067;-67
2024/03/30 20:00:46;;;;;;;7.70;2.28;;;15.30;99.90;;;;;;10119675;28;20044;-67
2024/03/30 20:05:37;;;;;;;8.18;3.25;;;15.30;99.90;;;;;;10101514;28;20086;-65
2024/03/30 20:10:28;;;;;;;7.57;2.10;;;15.30;99.90;;;;;;10124766;28;20032;-66
2024/03/30 20:15:18;;;;;;;9.60;2.40;;;15.30;99.90;;;;;;10119118;28;20162;-67
2024/03/30 20:20:09;;;;;;;10.43;2.47;;;15.20;99.90;;;;;;10113961;28;20087;-68
2024/03/30 20:25:00;;;;;;;7.05;2.58;;;15.20;99.90;;;;;;10111241;28;20552;-67
2024/03/30 20:29:51;;;;;;;7.78;3.05;;;15.20;99.90;;;;;;10132019;28;20092;-66
2024/03/30 20:34:41;;;;;;;10.82;2.95;;;15.20;99.90;;;;;;10106199;28;20074;-66
2024/03/30 20:39:33;;;;;;;11.98;3.05;;;15.10;99.90;;;;;;10122930;28;20417;-67
2024/03/30 20:44:23;;;;;;;11.07;5.00;;;15.10;99.90;;;;;;10094950;28;20029;-67
2024/03/30 20:49:14;;;;;;;10.43;3.85;;;15.00;99.90;;;;;;10124495;28;20037;-65
2024/03/30 20:54:05;;;;;;;7.85;2.50;;;15.10;99.90;;;;;;10134210;28;20028;-66
2024/03/30 20:58:56;;;;;;;11.48;3.13;;;15.10;99.90;;;;;;10115793;28;20021;-67
2024/03/30 21:03:46;;;;;;;10.60;3.53;;;15.10;99.90;;;;;;10112290;28;20090;-68
2024/03/30 21:08:37;;;;;;;8.05;2.90;;;15.10;99.90;;;;;;10116563;28;20510;-67
2024/03/30 21:13:28;;;;;;;9.98;2.50;;;15.10;99.90;;;;;;10109382;28;20029;-66
2024/03/30 21:18:20;;;;;;;11.15;3.38;;;15.10;99.90;;;;;;10093356;23;20076;-67
2024/03/30 21:23:10;;;;;;;9.27;2.83;;;15.00;99.90;;;;;;10051261;28;20161;-69
2024/03/30 21:28:01;;;;;;;6.97;3.00;;;15.00;99.90;;;;;;10055135;28;20153;-65
2024/03/30 21:32:52;;;;;;;6.80;2.33;;;15.00;99.90;;;;;;10057955;28;20107;-66
2024/03/30 21:37:42;;;;;;;11.32;2.50;;;15.00;99.90;;;;;;10055908;28;20472;-67
2024/03/30 21:42:33;;;;;;;11.55;2.75;;;15.10;99.90;;;;;;10057247;28;20049;-68
2024/03/30 21:47:25;;;;;;;6.05;2.70;;;15.10;99.90;;;;;;10058162;28;20029;-67
2024/03/30 21:52:16;;;;;;;4.70;2.17;;;15.00;99.90;;;;;;10056046;28;20030;-67
2024/03/30 21:57:07;;;;;;;7.43;2.55;;;15.00;99.90;;;;;;10049852;28;20084;-67
2024/03/30 22:01:57;;;;;;;13.45;3.05;;;15.10;99.90;;;;;;10056580;28;20022;-67
2024/03/30 22:06:48;;;;;;;11.70;3.28;;;14.90;99.90;;;;;;10057044;28;20029;-71
2024/03/30 22:11:39;;;;;;;10.88;3.13;;;14.80;99.90;;;;;;10057157;28;20057;-68
2024/03/30 22:16:30;;;;;;;9.13;3.42;;;14.70;99.90;;;;;;10056326;28;20056;-67
2024/03/30 22:21:21;;;;;;;10.75;4.13;;;14.70;99.90;;;;;;10055298;28;20527;-67
2024/03/30 22:26:11;;;;;;;13.15;4.18;;;14.70;99.90;;;;;;10055928;28;20560;-67
2024/03/30 22:31:02;;;;;;;10.35;3.47;;;14.70;99.90;;;;;;10055977;28;20129;-67
2024/03/30 22:35:53;;;;;;;10.88;3.65;;;14.60;99.90;;;;;;10055947;28;20101;-67
2024/03/30 22:40:44;;;;;;;8.52;3.28;;;14.60;99.90;;;;;;10050826;28;20095;-67
2024/03/30 22:45:34;;;;;;;12.52;3.75;;;14.60;99.90;;;;;;10055112;28;20041;-67
2024/03/30 22:50:25;;;;;;;9.07;3.58;;;14.60;99.90;;;;;;10055535;28;20412;-68
2024/03/30 22:55:16;;;;;;;10.57;3.38;;;14.50;99.90;;;;;;10060333;28;20133;-67
2024/03/30 23:00:12;;;;;;;6.43;2.70;;;14.50;99.90;;;;;;10058272;28;20034;-67
2024/03/30 23:05:03;;;;;;;8.77;4.35;;;14.40;99.90;;;;;;10053713;28;20030;-67
2024/03/30 23:09:54;;;;;;;13.48;3.35;;;14.40;99.90;;;;;;10055101;28;20033;-67
2024/03/30 23:14:44;;;;;;;9.05;3.80;;;14.20;99.90;;;;;;10055017;28;20025;-66
2024/03/30 23:19:35;;;;;;;6.68;3.10;;;14.10;99.90;;;;;;10054011;28;20053;-69
2024/03/30 23:24:26;;;;;;;10.95;2.78;;;14.10;99.90;;;;;;10054613;28;20048;-67
2024/03/30 23:29:17;;;;;;;6.10;2.50;;;14.00;99.90;;;;;;10054824;28;20470;-66
2024/03/30 23:34:08;;;;;;;8.18;3.35;;;14.00;99.90;;;;;;10057630;28;20033;-67
2024/03/30 23:38:59;;;;;;;6.00;3.15;;;14.00;99.90;;;;;;10062590;28;20045;-66
2024/03/30 23:43:50;;;;;;;7.35;3.40;;;13.90;99.90;;;;;;10062137;28;20437;-67
2024/03/30 23:48:41;;;;;;;8.35;2.95;;;14.00;99.90;;;;;;10059424;28;20471;-69
2024/03/30 23:53:31;;;;;;;12.40;3.42;;;14.00;99.90;;;;;;10061931;28;20117;-70
2024/03/30 23:58:22;;;;;;;8.73;2.90;;;14.00;99.90;;;;;;10061879;28;20068;-70
